EDDT/TXL METAR and TAF weather

Enter ICAO airport designator
Station Type Date Time Source
EDDT METAR 2020/01/28 04:50 UTC NOAA

EDDT 280450Z 18011KT 9999 -RA BKN021 06/04 Q0995 TEMPO RA


Station Type Date Time Source
EDDT Decoded METAR 2020/01/28 04:50 UTC NOAA

Berlin-Tegel, Germany (EDDT) 52-34N 013-19E 37M
Jan 27, 2020 - 11:50 PM EST / 2020.01.28 0450 UTC
Wind: from the S (180 degrees) at 13 MPH (11 KT):0
Visibility: greater than 7 mile(s):0
Sky conditions: mostly cloudy
Weather: light rain
Temperature: 42 F (6 C)
Dew Point: 39 F (4 C)
Relative Humidity: 86%
Pressure (altimeter): 29.38 in. Hg (0995 hPa)
ob: EDDT 280450Z 18011KT 9999 -RA BKN021 06/04 Q0995 TEMPO RA
cycle: 5

Station Type Date Time Source
EDDT TAF 2020/01/27 18:27 UTC NOAA

TAF EDDT 271700Z 2718/2818 19009KT 9999 FEW015 BKN035 PROB30
TEMPO 2805/2808 BKN012
BECMG 2806/2808 21014KT
BECMG 2808/2812 23015G30KT
TEMPO 2814/2818 24020G35KT SHRAGS BKN025CB

Example: see airport list